Time;durP1;ratioP1;P1;durP2;ratioP2;P2;SDS_P1;SDS_P2;PMS_P1;PMS_P2;Temp;Humidity;BMP_temperature;BMP_pressure;BME280_temperature;BME280_humidity;BME280_pressure;Samples;Min_cycle;Max_cycle;Signal;HPM_P1;HPM_P2
2021/04/01 00:00:22;;;;;;;12.23;7.30;;;;;;;2.90;79.70;96215.64;1753838;82;21586;-64
2021/04/01 00:02:54;;;;;;;10.40;7.10;;;;;;;2.93;80.45;96214.00;1754243;82;21575;-63
2021/04/01 00:05:25;;;;;;;9.57;6.13;;;;;;;2.99;80.26;96210.20;1753914;82;21133;-64
2021/04/01 00:07:52;;;;;;;10.63;5.30;;;;;;;3.10;80.31;96203.92;1754328;81;21551;-64
2021/04/01 00:10:25;;;;;;;11.33;6.50;;;;;;;3.10;80.05;96199.11;1753997;82;21101;-64
2021/04/01 00:12:54;;;;;;;10.38;6.25;;;;;;;3.07;80.13;96194.71;1727404;82;21098;-64
2021/04/01 00:15:23;;;;;;;9.07;5.37;;;;;;;3.09;80.15;96196.94;1754184;81;21129;-64
2021/04/01 00:17:51;;;;;;;9.53;6.17;;;;;;;2.97;80.56;96198.89;1754053;81;21114;-64
2021/04/01 00:20:19;;;;;;;12.30;6.17;;;;;;;3.07;80.33;96196.02;1754389;82;21140;-64
2021/04/01 00:22:47;;;;;;;10.57;5.93;;;;;;;3.15;81.07;96193.16;1754229;82;21141;-64
2021/04/01 00:25:18;;;;;;;8.50;5.70;;;;;;;3.12;80.66;96195.69;1754101;81;21590;-64
2021/04/01 00:27:46;;;;;;;10.37;5.60;;;;;;;3.17;80.43;96194.05;1754105;82;21144;-64
2021/04/01 00:30:16;;;;;;;7.80;3.73;;;;;;;3.23;80.12;96195.48;1753901;82;21141;-64
2021/04/01 00:32:46;;;;;;;9.63;5.33;;;;;;;3.11;80.38;96196.55;1754098;82;21165;-64
2021/04/01 00:35:14;;;;;;;9.70;5.30;;;;;;;3.04;80.13;96196.83;1754155;82;21160;-64
2021/04/01 00:37:42;;;;;;;17.17;7.83;;;;;;;2.95;79.94;96190.58;1754050;81;21145;-64
2021/04/01 00:40:12;;;;;;;8.20;4.50;;;;;;;2.92;80.16;96191.80;1754505;82;21678;-64
2021/04/01 00:42:41;;;;;;;7.43;4.93;;;;;;;2.84;80.52;96189.03;1754146;81;21129;-64
2021/04/01 00:45:12;;;;;;;7.27;3.70;;;;;;;2.90;80.50;96185.67;1753918;81;21177;-64
2021/04/01 00:47:46;;;;;;;8.17;5.00;;;;;;;2.89;80.60;96186.53;1754376;81;21129;-64
2021/04/01 00:50:19;;;;;;;7.40;3.20;;;;;;;2.86;80.90;96188.65;1754300;82;21551;-64
2021/04/01 00:52:47;;;;;;;3.80;2.58;;;;;;;2.83;81.00;96189.02;1754317;82;21145;-64
2021/04/01 00:55:16;;;;;;;5.30;3.33;;;;;;;2.72;81.34;96190.08;1754265;81;21170;-64
2021/04/01 00:57:48;;;;;;;8.43;4.90;;;;;;;2.66;80.58;96183.45;1747726;81;21580;-64
2021/04/01 01:00:25;;;;;;;7.10;3.53;;;;;;;2.67;80.48;96179.59;1740273;82;21666;-64
2021/04/01 01:02:51;;;;;;;10.07;4.87;;;;;;;2.70;81.07;96173.13;1739981;82;21244;-64
2021/04/01 01:05:22;;;;;;;6.93;3.50;;;;;;;2.71;80.73;96173.57;1740129;81;21102;-64
2021/04/01 01:07:50;;;;;;;10.37;4.90;;;;;;;2.71;81.39;96172.27;1740085;82;21244;-64
2021/04/01 01:10:22;;;;;;;10.13;5.90;;;;;;;2.67;80.69;96169.56;1740638;82;21150;-64
2021/04/01 01:12:51;;;;;;;6.78;4.53;;;;;;;2.69;80.28;96168.74;1740234;82;21683;-64
2021/04/01 01:15:21;;;;;;;9.57;4.83;;;;;;;2.62;80.57;96166.89;1740098;82;21162;-64
2021/04/01 01:17:52;;;;;;;6.77;4.60;;;;;;;2.51;81.04;96166.63;1740354;82;21284;-64
2021/04/01 01:20:26;;;;;;;8.30;4.33;;;;;;;2.41;80.80;96162.06;1740096;81;21559;-64
2021/04/01 01:22:56;;;;;;;9.00;5.57;;;;;;;2.36;80.91;96155.88;1737435;82;21575;-64
2021/04/01 01:25:24;;;;;;;9.57;5.77;;;;;;;2.42;81.13;96145.62;1740075;82;21161;-64
2021/04/01 01:27:52;;;;;;;10.43;6.67;;;;;;;2.52;81.53;96141.06;1740176;82;21537;-64
2021/04/01 01:30:21;;;;;;;11.40;6.70;;;;;;;2.58;81.27;96142.47;1739867;82;21296;-64
2021/04/01 01:32:57;;;;;;;7.10;4.90;;;;;;;2.56;81.61;96137.66;1740243;82;21145;-64
2021/04/01 01:35:23;;;;;;;7.33;5.10;;;;;;;2.64;81.21;96133.90;1739401;82;21292;-64
2021/04/01 01:37:55;;;;;;;5.93;3.27;;;;;;;2.75;80.98;96136.31;1740142;81;21702;-64
2021/04/01 01:40:26;;;;;;;8.83;5.30;;;;;;;2.75;80.78;96136.75;1740190;82;21545;-64
2021/04/01 01:42:57;;;;;;;9.53;5.40;;;;;;;2.62;80.59;96134.72;1740072;82;21126;-64
2021/04/01 01:45:28;;;;;;;8.00;6.17;;;;;;;2.60;80.83;96134.70;1739923;82;21560;-64
2021/04/01 01:47:57;;;;;;;8.20;6.10;;;;;;;2.66;81.16;96141.77;1740075;82;21738;-64
2021/04/01 01:50:30;;;;;;;8.97;4.83;;;;;;;2.66;80.86;96140.03;1740194;81;21261;-64
2021/04/01 01:52:58;;;;;;;;;;;;;;;2.68;80.86;96138.77;1741699;82;21157;-64
2021/04/01 01:55:28;;;;;;;6.13;3.40;;;;;;;2.56;80.37;96136.78;1739868;82;20134;-64
2021/04/01 01:57:56;;;;;;;4.50;2.73;;;;;;;2.47;80.25;96140.08;1745633;81;21165;-64
2021/04/01 02:00:36;;;;;;;6.70;4.17;;;;;;;2.44;80.54;96136.08;1754110;81;21137;-64
2021/04/01 02:03:06;;;;;;;8.23;4.70;;;;;;;2.36;80.37;96137.66;1726638;82;21090;-66
2021/04/01 02:05:37;;;;;;;43.07;16.23;;;;;;;2.42;80.52;96131.30;1726956;82;21543;-66
2021/04/01 02:08:08;;;;;;;15.63;6.70;;;;;;;2.38;81.06;96136.84;1754447;82;21279;-66
2021/04/01 02:10:43;;;;;;;11.70;4.83;;;;;;;2.32;81.01;96133.25;1754532;81;21121;-66
2021/04/01 02:13:17;;;;;;;7.03;3.73;;;;;;;2.32;80.96;96127.61;1754145;82;21145;-66
2021/04/01 02:15:46;;;;;;;;;;;;;;;2.34;81.49;96134.13;1756602;82;21154;-66
2021/04/01 02:18:18;;;;;;;8.17;4.37;;;;;;;2.29;81.87;96135.75;1754403;82;20133;-66
2021/04/01 02:20:49;;;;;;;5.97;3.37;;;;;;;2.29;81.19;96127.55;1727058;82;21178;-66
2021/04/01 02:23:19;;;;;;;7.43;4.60;;;;;;;2.32;81.43;96125.00;1754241;81;21153;-66
2021/04/01 02:25:49;;;;;;;7.30;4.23;;;;;;;2.38;81.09;96131.63;1754210;82;21141;-66
2021/04/01 02:28:23;;;;;;;8.67;4.70;;;;;;;2.40;81.00;96124.30;1754472;82;21152;-66
2021/04/01 02:30:56;;;;;;;7.47;3.83;;;;;;;2.39;80.70;96115.58;1754124;81;21602;-66
2021/04/01 02:33:27;;;;;;;7.97;4.37;;;;;;;2.34;81.39;96117.20;1754245;82;21130;-67
2021/04/01 02:35:56;;;;;;;10.03;4.30;;;;;;;2.30;81.10;96119.30;1754491;81;21153;-64
2021/04/01 02:38:25;;;;;;;5.33;3.93;;;;;;;2.34;81.19;96114.20;1754113;81;21105;-64
2021/04/01 02:40:56;;;;;;;5.57;3.70;;;;;;;2.45;81.14;96114.42;1754187;81;21567;-64
2021/04/01 02:43:33;;;;;;;6.27;3.80;;;;;;;2.44;81.39;96103.96;1754286;82;21145;-64
2021/04/01 02:46:03;;;;;;;6.33;3.40;;;;;;;2.37;80.98;96109.48;1754085;82;21086;-64
2021/04/01 02:48:32;;;;;;;3.53;2.57;;;;;;;2.35;81.35;96100.75;1754463;82;21129;-64
2021/04/01 02:51:00;;;;;;;4.80;3.60;;;;;;;2.34;81.12;96101.58;1754459;82;21279;-64
2021/04/01 02:53:27;;;;;;;7.00;3.90;;;;;;;2.17;81.72;96101.23;1727259;82;21148;-64
2021/04/01 02:55:58;;;;;;;5.93;2.93;;;;;;;2.26;81.62;96102.72;1754161;82;21137;-64
2021/04/01 02:58:26;;;;;;;6.60;2.90;;;;;;;2.40;81.51;96098.25;1747256;81;21164;-64
2021/04/01 03:00:55;;;;;;;9.07;3.17;;;;;;;2.36;81.20;96088.17;1740216;82;21279;-64
2021/04/01 03:03:29;;;;;;;4.00;3.13;;;;;;;2.33;81.05;96093.33;1740432;82;21283;-63
2021/04/01 03:05:56;;;;;;;4.83;3.30;;;;;;;2.35;80.91;96099.45;1740250;82;21149;-64
2021/04/01 03:08:24;;;;;;;6.60;3.90;;;;;;;2.37;81.00;96093.86;1740301;82;21718;-64
2021/04/01 03:10:53;;;;;;;4.53;3.00;;;;;;;2.29;81.40;96091.48;1719904;82;21128;-64
2021/04/01 03:13:21;;;;;;;3.93;2.73;;;;;;;2.20;81.18;96096.52;1740050;82;21272;-64
2021/04/01 03:15:50;;;;;;;5.63;3.17;;;;;;;2.23;80.91;96092.25;1740246;82;21122;-64
2021/04/01 03:18:19;;;;;;;5.07;3.27;;;;;;;2.20;80.84;96090.88;1740009;82;21328;-64
2021/04/01 03:20:48;;;;;;;6.37;4.13;;;;;;;2.14;80.95;96090.34;1740145;82;21141;-64
2021/04/01 03:23:17;;;;;;;6.63;3.60;;;;;;;2.11;80.48;96083.73;1740132;82;21280;-64
2021/04/01 03:25:45;;;;;;;4.30;3.07;;;;;;;2.10;80.32;96075.48;1740327;82;21264;-64
2021/04/01 03:28:14;;;;;;;5.17;3.70;;;;;;;2.14;80.37;96074.72;1740106;82;21161;-64
2021/04/01 03:30:47;;;;;;;6.23;4.23;;;;;;;2.19;80.70;96074.79;1740113;82;21285;-64
2021/04/01 03:33:11;;;;;;;8.33;5.07;;;;;;;2.19;80.76;96076.09;1739683;82;21280;-64
2021/04/01 03:35:39;;;;;;;7.77;4.03;;;;;;;2.16;81.21;96074.30;1740263;82;21280;-64
2021/04/01 03:38:07;;;;;;;3.60;3.00;;;;;;;2.05;81.40;96069.30;1740123;82;21713;-64
2021/04/01 03:40:35;;;;;;;8.57;3.20;;;;;;;2.01;81.00;96076.57;1740232;82;21584;-65
2021/04/01 03:43:04;;;;;;;4.57;3.13;;;;;;;1.81;81.52;96078.73;1740840;81;21095;-64
2021/04/01 03:45:32;;;;;;;4.23;2.70;;;;;;;1.76;81.45;96082.95;1740378;82;21280;-62
2021/04/01 03:47:59;;;;;;;5.20;3.30;;;;;;;1.65;81.60;96074.90;1739969;82;21284;-62
2021/04/01 03:50:27;;;;;;;4.73;3.20;;;;;;;1.62;82.49;96076.14;1740053;82;21572;-62
2021/04/01 03:52:54;;;;;;;7.17;3.73;;;;;;;1.74;82.28;96076.86;1740080;82;21735;-63
2021/04/01 03:57:57;;;;;;;9.07;3.70;;;;;;;1.93;81.82;96073.80;1741280;81;21273;-62
2021/04/01 04:00:27;;;;;;;4.37;2.93;;;;;;;2.03;82.02;96072.28;1748376;82;21121;-63
2021/04/01 04:08:48;;;;;;;5.53;3.50;;;;;;;1.86;81.83;96073.63;1748254;82;21157;-65
2021/04/01 04:13:57;;;;;;;5.50;3.30;;;;;;;1.97;81.94;96075.20;1748270;82;21143;-65
2021/04/01 04:16:22;;;;;;;7.27;4.27;;;;;;;2.00;81.72;96075.26;1747946;82;21142;-65
2021/04/01 04:18:51;;;;;;;11.03;6.87;;;;;;;2.07;81.94;96074.13;1748438;82;21602;-65
2021/04/01 04:21:19;;;;;;;13.67;6.97;;;;;;;2.11;81.35;96073.75;1748650;82;21182;-65
2021/04/01 04:23:48;;;;;;;4.97;3.13;;;;;;;2.04;81.47;96071.46;1748241;82;21110;-65
2021/04/01 04:26:16;;;;;;;7.83;4.47;;;;;;;2.06;80.99;96071.48;1748433;82;21604;-65
2021/04/01 04:28:45;;;;;;;8.47;3.53;;;;;;;1.96;81.27;96074.30;1719013;82;21106;-65
2021/04/01 04:31:12;;;;;;;5.33;2.77;;;;;;;1.94;81.03;96079.88;1748453;82;21141;-65
2021/04/01 04:33:40;;;;;;;6.13;2.63;;;;;;;1.93;81.12;96066.42;1748134;82;21165;-65
2021/04/01 04:36:09;;;;;;;6.90;3.50;;;;;;;1.91;81.34;96068.98;1748181;81;21181;-65
2021/04/01 04:38:37;;;;;;;5.10;3.43;;;;;;;1.87;81.78;96071.08;1748525;82;21141;-64
2021/04/01 04:41:06;;;;;;;4.30;2.20;;;;;;;2.00;81.96;96060.95;1748407;82;21152;-65
2021/04/01 04:43:35;;;;;;;10.97;4.47;;;;;;;2.10;81.94;96058.99;1748243;82;21196;-65
2021/04/01 04:46:03;;;;;;;4.13;2.77;;;;;;;2.05;81.66;96058.02;1748631;82;21145;-65
2021/04/01 04:48:30;;;;;;;6.90;2.80;;;;;;;2.02;81.87;96058.83;1748222;81;21145;-65
2021/04/01 04:50:59;;;;;;;6.10;3.60;;;;;;;2.06;82.05;96053.25;1748400;81;21492;-64
2021/04/01 04:53:27;;;;;;;58.70;23.03;;;;;;;2.10;82.70;96057.69;1747114;82;21141;-65
2021/04/01 04:56:11;;;;;;;66.87;27.33;;;;;;;2.14;83.05;96055.59;1748476;82;21170;-67
2021/04/01 05:04:37;;;;;;;80.80;31.43;;;;;;;2.29;82.99;96056.34;1740014;82;21134;-68
2021/04/01 05:09:10;;;;;;;11.10;6.72;;;;;;;2.71;83.87;96046.33;1740376;82;21268;-64
2021/04/01 05:11:38;;;;;;;49.17;22.67;;;;;;;2.89;83.83;96041.45;1739928;82;21157;-64
2021/04/01 05:14:06;;;;;;;47.37;22.03;;;;;;;3.08;84.59;96032.23;1740304;82;21327;-63
2021/04/01 05:16:34;;;;;;;62.67;26.27;;;;;;;3.32;84.80;96031.75;1740194;82;21145;-63
2021/04/01 05:19:04;;;;;;;47.93;22.60;;;;;;;3.53;83.68;96032.95;1740140;82;21268;-60
2021/04/01 05:24:12;;;;;;;33.70;17.50;;;;;;;3.85;83.59;96033.44;1700000;84;21118;-61
2021/04/01 05:29:35;;;;;;;21.77;11.50;;;;;;;4.46;82.92;96018.59;1700303;84;21118;-63
2021/04/01 05:32:02;;;;;;;24.70;14.53;;;;;;;4.81;82.32;96014.16;1699542;84;21571;-65
2021/04/01 05:34:30;;;;;;;24.20;13.47;;;;;;;5.13;81.97;96011.00;1700155;84;21152;-61
2021/04/01 05:37:00;;;;;;;24.43;13.60;;;;;;;5.32;82.54;96012.05;1700208;84;21118;-61
2021/04/01 05:39:36;;;;;;;19.43;11.33;;;;;;;5.52;82.11;96010.88;1700122;84;21181;-61
2021/04/01 05:42:00;;;;;;;18.33;10.60;;;;;;;5.83;81.63;96003.69;1699586;84;21595;-61
2021/04/01 05:44:38;;;;;;;15.57;8.83;;;;;;;6.13;80.98;96006.08;1700404;84;21154;-62
2021/04/01 05:47:16;;;;;;;17.63;12.27;;;;;;;6.33;79.98;95997.01;1699868;84;21154;-65
2021/04/01 05:49:55;;;;;;;7.23;4.83;;;;;;;6.50;79.20;96000.58;1700222;84;21142;-63
2021/04/01 06:03:55;;;;;;;12.10;7.30;;;;;;;7.34;77.83;95991.13;1711758;83;21134;-62
2021/04/01 06:06:26;;;;;;;9.13;6.03;;;;;;;7.42;76.90;95995.05;1695765;84;21591;-61
2021/04/01 06:08:55;;;;;;;10.53;6.13;;;;;;;7.54;76.70;95993.75;1775858;80;21260;-63
2021/04/01 06:11:23;;;;;;;9.77;6.07;;;;;;;7.69;76.53;95991.55;1700519;84;21150;-63
2021/04/01 06:14:10;;;;;;;10.83;7.33;;;;;;;7.83;76.17;95992.39;1776308;81;21702;-71
2021/04/01 06:16:43;;;;;;;10.03;7.30;;;;;;;7.97;75.92;95991.06;1776277;80;21300;-61
2021/04/01 06:19:15;;;;;;;12.33;7.23;;;;;;;8.11;75.39;95998.45;1700316;84;21145;-63
2021/04/01 06:21:47;;;;;;;10.77;7.13;;;;;;;8.24;75.42;95992.75;1776509;80;21260;-64
2021/04/01 06:24:27;;;;;;;13.50;8.80;;;;;;;8.38;75.30;95988.75;1776377;81;21506;-66
2021/04/01 06:27:12;;;;;;;14.83;8.00;;;;;;;8.53;74.72;95991.34;1700556;84;21157;-62
2021/04/01 06:29:39;;;;;;;13.87;7.53;;;;;;;8.74;74.33;95986.86;1775537;81;21264;-61
2021/04/01 06:32:24;;;;;;;11.73;7.70;;;;;;;8.91;74.32;95985.46;1776143;81;21272;-62
2021/04/01 06:34:52;;;;;;;12.43;8.07;;;;;;;9.08;73.70;95977.02;1700218;84;21193;-65
2021/04/01 06:40:02;;;;;;;14.17;8.57;;;;;;;9.44;73.37;95978.95;1776457;80;21166;-60
2021/04/01 06:42:55;;;;;;;14.83;9.50;;;;;;;9.57;72.45;95971.36;1700528;84;21134;-61
2021/04/01 06:45:25;;;;;;;9.93;6.20;;;;;;;9.63;71.96;95975.28;1776597;81;21544;-61
2021/04/01 06:47:56;;;;;;;25.73;22.03;;;;;;;9.68;71.39;95969.98;1700460;84;21149;-62
2021/04/01 06:50:37;;;;;;;14.33;9.10;;;;;;;9.77;70.55;95967.69;1776255;81;21121;-63
2021/04/01 06:53:11;;;;;;;8.23;6.33;;;;;;;9.88;71.08;95969.79;1773057;81;21181;-59
2021/04/01 06:55:49;;;;;;;10.73;8.00;;;;;;;10.14;71.32;95965.10;1772046;81;21560;-62
2021/04/01 06:58:32;;;;;;;15.40;9.33;;;;;;;10.44;70.52;95963.05;1776348;81;21311;-61
2021/04/01 07:03:49;;;;;;;12.07;7.00;;;;;;;10.89;67.91;95957.20;1775799;81;21283;-62
2021/04/01 07:06:30;;;;;;;10.60;6.60;;;;;;;11.07;65.94;95955.60;1700680;84;21142;-61
2021/04/01 07:09:05;;;;;;;13.50;7.23;;;;;;;11.14;64.73;95951.11;1776284;81;21129;-61
2021/04/01 07:14:16;;;;;;;18.70;9.30;;;;;;;11.23;64.12;95946.53;1700545;84;21580;-60
2021/04/01 07:16:56;;;;;;;26.47;15.17;;;;;;;11.26;63.74;95943.87;1776398;81;21149;-60
2021/04/01 07:19:45;;;;;;;29.77;18.50;;;;;;;11.39;64.06;95941.00;1776496;80;21292;-60
2021/04/01 07:30:56;;;;;;;38.63;23.07;;;;;;;12.21;64.05;95928.12;1700815;84;21146;-64
2021/04/01 07:48:00;;;;;;;9.50;5.53;;;;;;;13.62;59.84;95905.56;1703678;84;21221;-62
2021/04/01 07:50:43;;;;;;;4.70;3.33;;;;;;;13.93;60.48;95892.36;1703743;84;21214;-63
2021/04/01 07:53:25;;;;;;;6.43;5.27;;;;;;;14.15;55.21;95888.67;1824298;77;23334;-63
2021/04/01 07:58:56;;;;;;;6.60;4.33;;;;;;;14.41;54.98;95890.61;1759449;81;21153;-63
2021/04/01 08:01:31;;;;;;;6.40;3.50;;;;;;;14.50;56.18;95887.66;1758354;81;21941;-63
2021/04/01 08:03:56;;;;;;;5.50;3.35;;;;;;;14.81;54.90;95880.59;1767131;81;21598;-63
2021/04/01 08:06:26;;;;;;;5.37;3.23;;;;;;;15.16;52.30;95875.51;1770886;81;21105;-61
2021/04/01 08:08:58;;;;;;;5.60;3.73;;;;;;;15.49;50.73;95870.87;1770869;81;21140;-61
2021/04/01 08:11:32;;;;;;;7.37;3.80;;;;;;;15.68;52.33;95872.46;1770971;81;21156;-61
2021/04/01 08:14:21;;;;;;;4.67;3.43;;;;;;;15.92;51.61;95873.42;1761050;81;21148;-61
2021/04/01 08:19:21;;;;;;;4.43;4.03;;;;;;;16.09;48.46;95878.16;1760908;81;21603;-61
2021/04/01 08:21:52;;;;;;;8.40;5.23;;;;;;;16.09;48.45;95868.84;1766816;81;21168;-64
2021/04/01 08:24:25;;;;;;;8.77;6.00;;;;;;;15.99;47.66;95872.75;1766480;81;21121;-60
2021/04/01 08:34:49;;;;;;;7.23;5.10;;;;;;;15.67;48.28;95869.84;1766214;81;21157;-66
2021/04/01 08:37:23;;;;;;;5.60;4.58;;;;;;;15.54;47.76;95868.06;1766664;81;21109;-70
2021/04/01 08:39:54;;;;;;;5.28;3.98;;;;;;;15.42;48.30;95864.05;1766947;81;21129;-66
2021/04/01 08:43:01;;;;;;;5.60;4.83;;;;;;;15.35;49.54;95862.03;1766487;81;21271;-69
2021/04/01 08:45:59;;;;;;;7.77;5.50;;;;;;;15.33;49.26;95871.84;1766579;81;21097;-70
2021/04/01 08:49:01;;;;;;;11.80;7.30;;;;;;;15.32;49.25;95874.11;1740934;81;21606;-70
2021/04/01 08:52:08;;;;;;;8.87;6.47;;;;;;;15.36;49.69;95873.06;1760177;81;21145;-70
2021/04/01 08:55:03;;;;;;;7.90;6.27;;;;;;;15.41;49.15;95866.27;1755697;81;21606;-69
2021/04/01 08:58:10;;;;;;;8.20;6.00;;;;;;;15.31;48.50;95869.69;1770908;81;21132;-67
2021/04/01 09:00:42;;;;;;;10.93;6.07;;;;;;;15.28;48.58;95866.27;1680988;85;21260;-66
2021/04/01 09:03:12;;;;;;;13.33;6.80;;;;;;;15.29;48.69;95871.52;1745101;81;21642;-68
2021/04/01 09:05:54;;;;;;;8.03;5.83;;;;;;;15.28;49.21;95871.13;1755865;81;21153;-68
2021/04/01 09:08:34;;;;;;;8.77;5.70;;;;;;;15.31;48.80;95861.72;1780635;79;23481;-67
2021/04/01 09:11:03;;;;;;;25.70;15.35;;;;;;;15.23;48.77;95862.44;1749453;81;21090;-67
2021/04/01 09:13:34;;;;;;;8.20;5.70;;;;;;;15.25;49.03;95857.08;1754144;82;21125;-68
2021/04/01 09:16:30;;;;;;;8.73;5.33;;;;;;;15.28;48.18;95859.63;1754128;82;21153;-68
2021/04/01 09:18:47;;;;;;;6.90;5.37;;;;;;;15.34;48.46;95854.09;1750889;82;21563;-67
2021/04/01 09:21:15;;;;;;;9.10;5.80;;;;;;;15.51;48.14;95848.23;1754252;82;21552;-67
2021/04/01 09:23:49;;;;;;;10.53;6.10;;;;;;;15.65;47.34;95846.41;1753991;82;21165;-68
2021/04/01 09:26:17;;;;;;;8.87;5.27;;;;;;;15.86;47.64;95835.53;1753739;82;21134;-68
2021/04/01 09:28:44;;;;;;;9.77;5.20;;;;;;;16.05;45.66;95837.06;1753902;81;21602;-68
2021/04/01 09:31:14;;;;;;;6.50;4.50;;;;;;;16.18;45.93;95835.70;1754323;81;21161;-68
2021/04/01 09:33:43;;;;;;;8.70;5.60;;;;;;;16.22;46.36;95830.66;1753867;81;21599;-68
2021/04/01 09:36:19;;;;;;;7.77;4.97;;;;;;;16.17;47.00;95829.48;1754631;82;21283;-68
2021/04/01 09:39:17;;;;;;;10.77;4.90;;;;;;;16.10;47.27;95821.78;1754049;82;21117;-68
2021/04/01 09:41:35;;;;;;;20.23;10.58;;;;;;;16.10;47.34;95826.67;1750885;82;21130;-68
2021/04/01 09:44:08;;;;;;;28.47;11.53;;;;;;;16.09;46.47;95830.70;1754290;82;21125;-68
2021/04/01 09:46:53;;;;;;;12.77;7.60;;;;;;;16.09;46.35;95823.59;1753975;82;21118;-68
2021/04/01 09:49:22;;;;;;;9.20;6.00;;;;;;;16.09;45.06;95813.41;1753923;82;21157;-68
2021/04/01 09:51:53;;;;;;;11.40;7.30;;;;;;;16.29;46.21;95809.54;1754276;82;21180;-68
2021/04/01 09:54:23;;;;;;;10.83;7.23;;;;;;;16.49;46.99;95812.78;1753963;82;21153;-68
2021/04/01 09:56:57;;;;;;;13.20;8.03;;;;;;;16.62;46.29;95806.52;1754143;81;21165;-68
2021/04/01 09:59:47;;;;;;;11.43;6.93;;;;;;;16.71;45.45;95804.83;1754117;82;21122;-68
2021/04/01 10:02:16;;;;;;;8.93;5.83;;;;;;;16.82;46.21;95807.95;1753328;82;21153;-68
2021/04/01 10:04:45;;;;;;;;;;;;;;;16.88;44.29;95798.84;1755984;82;21137;-68
2021/04/01 10:07:15;;;;;;;7.70;5.17;;;;;;;17.14;43.94;95794.28;1748922;82;20168;-68
2021/04/01 10:09:52;;;;;;;13.63;7.00;;;;;;;17.07;43.61;95790.98;1740759;82;21162;-68
2021/04/01 10:12:20;;;;;;;8.23;6.13;;;;;;;17.13;43.68;95782.72;1740759;82;21576;-68
2021/04/01 10:14:54;;;;;;;9.35;7.22;;;;;;;17.07;44.67;95782.98;1719716;82;21260;-68
2021/04/01 10:17:24;;;;;;;15.20;10.90;;;;;;;17.13;44.62;95779.20;1740562;82;21594;-68
2021/04/01 10:19:58;;;;;;;16.23;9.67;;;;;;;17.21;44.76;95779.30;1743658;81;21146;-68
2021/04/01 10:22:32;;;;;;;;;;;;;;;17.26;44.60;95775.08;1742724;82;21252;-68
2021/04/01 10:25:22;;;;;;;10.13;7.17;;;;;;;17.18;45.08;95771.40;1740401;82;20510;-68
2021/04/01 10:27:58;;;;;;;40.40;19.10;;;;;;;17.10;45.31;95770.86;1740096;82;21150;-68
2021/04/01 10:30:28;;;;;;;64.32;27.90;;;;;;;17.15;46.02;95768.01;1740068;82;21722;-68
2021/04/01 10:33:13;;;;;;;68.97;30.82;;;;;;;17.23;45.48;95765.88;1740481;82;21122;-68
2021/04/01 10:35:44;;;;;;;13.43;10.33;;;;;;;17.28;45.56;95770.55;1731903;82;21185;-68
2021/04/01 10:38:14;;;;;;;17.77;10.73;;;;;;;17.21;45.34;95769.06;1740550;82;21142;-68
2021/04/01 10:40:43;;;;;;;17.40;11.77;;;;;;;17.05;46.12;95764.38;1740611;82;21098;-68
2021/04/01 10:43:11;;;;;;;34.80;17.83;;;;;;;17.03;45.95;95765.38;1740357;82;21284;-68
2021/04/01 10:45:46;;;;;;;20.37;12.27;;;;;;;17.06;46.57;95759.47;1740417;82;21106;-68
2021/04/01 10:48:38;;;;;;;34.30;18.07;;;;;;;17.18;47.21;95756.73;1740320;82;21154;-68
2021/04/01 10:51:08;;;;;;;15.48;9.55;;;;;;;17.41;46.91;95749.12;1720073;82;21130;-68
2021/04/01 10:53:43;;;;;;;17.97;11.47;;;;;;;17.66;45.70;95753.36;1740172;82;21265;-68
2021/04/01 10:56:13;;;;;;;15.58;9.88;;;;;;;17.78;44.99;95740.81;1740494;82;21142;-68
2021/04/01 10:58:54;;;;;;;13.85;9.58;;;;;;;17.96;45.03;95744.48;1740406;82;21141;-68
2021/04/01 11:01:32;;;;;;;16.67;9.38;;;;;;;18.21;45.13;95739.38;1740048;81;21691;-68
2021/04/01 11:04:05;;;;;;;15.58;10.08;;;;;;;18.52;44.18;95736.11;1740131;82;21173;-68
2021/04/01 11:06:34;;;;;;;31.57;20.50;;;;;;;18.57;43.48;95728.74;1744210;82;21552;-68
2021/04/01 11:09:03;;;;;;;33.85;20.23;;;;;;;18.68;43.56;95722.43;1753806;81;21172;-68
2021/04/01 11:12:03;;;;;;;14.28;8.95;;;;;;;18.70;43.25;95727.23;1754240;82;21599;-68
2021/04/01 11:14:11;;;;;;;13.75;9.08;;;;;;;18.81;43.20;95725.40;1750517;82;21118;-68
2021/04/01 11:16:40;;;;;;;18.23;8.90;;;;;;;18.86;43.01;95726.52;1754297;82;21146;-68
2021/04/01 11:19:11;;;;;;;16.07;10.65;;;;;;;18.87;42.88;95721.08;1754140;82;21575;-68
2021/04/01 11:21:40;;;;;;;18.07;12.03;;;;;;;18.90;43.01;95716.94;1754153;82;21527;-68
2021/04/01 11:24:11;;;;;;;19.92;12.80;;;;;;;19.27;42.53;95713.73;1754205;81;21137;-68
2021/04/01 11:26:39;;;;;;;15.70;8.95;;;;;;;19.37;41.72;95707.45;1754130;81;21121;-68
2021/04/01 11:29:16;;;;;;;14.45;9.80;;;;;;;19.08;40.33;95711.63;1754414;81;21133;-68
2021/04/01 11:31:44;;;;;;;13.43;8.95;;;;;;;19.09;41.71;95704.84;1753928;82;21559;-68
2021/04/01 11:34:12;;;;;;;14.13;9.93;;;;;;;19.00;41.19;95706.18;1754111;82;21587;-68
2021/04/01 11:36:43;;;;;;;14.23;9.10;;;;;;;18.86;41.86;95701.98;1754293;82;21141;-68
2021/04/01 11:39:27;;;;;;;17.95;11.75;;;;;;;18.73;42.42;95697.68;1754329;82;21176;-68
2021/04/01 11:41:55;;;;;;;15.72;8.90;;;;;;;18.86;42.52;95694.44;1754404;82;21130;-68
2021/04/01 11:44:22;;;;;;;13.90;9.28;;;;;;;19.37;42.21;95688.72;1754288;82;21152;-68
2021/04/01 11:46:50;;;;;;;10.90;8.18;;;;;;;19.56;41.51;95685.97;1754132;82;21598;-68
2021/04/01 11:49:18;;;;;;;14.15;8.38;;;;;;;19.59;39.57;95687.13;1754290;81;21141;-68
2021/04/01 11:51:47;;;;;;;10.18;7.65;;;;;;;19.89;39.95;95684.19;1754236;81;21149;-68
2021/04/01 11:54:25;;;;;;;15.10;10.28;;;;;;;19.87;38.97;95679.38;1754201;81;21117;-68
2021/04/01 11:56:53;;;;;;;15.68;7.95;;;;;;;20.04;40.02;95678.48;1754438;81;21145;-68
2021/04/01 11:59:28;;;;;;;13.05;8.90;;;;;;;19.92;39.49;95674.27;1754267;82;21575;-68
2021/04/01 12:02:09;;;;;;;11.15;8.55;;;;;;;19.71;39.71;95674.48;1753885;82;21138;-68
2021/04/01 12:04:30;;;;;;;12.05;7.70;;;;;;;19.52;40.00;95665.65;1750247;82;21575;-68
2021/04/01 12:06:58;;;;;;;13.95;8.00;;;;;;;19.11;40.77;95669.53;1727019;82;21149;-68
2021/04/01 12:09:27;;;;;;;11.05;7.60;;;;;;;19.13;41.17;95672.14;1740101;82;21277;-68
2021/04/01 12:11:54;;;;;;;12.10;6.95;;;;;;;19.07;41.24;95659.92;1740198;82;21166;-68
2021/04/01 12:14:33;;;;;;;9.88;7.60;;;;;;;19.09;41.25;95661.19;1740351;82;21173;-68
2021/04/01 12:17:03;;;;;;;17.23;9.98;;;;;;;19.30;40.86;95652.04;1740500;82;21146;-68
2021/04/01 12:19:35;;;;;;;9.43;7.40;;;;;;;19.48;41.03;95644.00;1739861;82;21268;-68
2021/04/01 12:22:13;;;;;;;11.47;7.23;;;;;;;20.42;40.54;95635.29;1744135;82;21572;-68
2021/04/01 12:24:41;;;;;;;12.10;8.15;;;;;;;21.06;38.68;95625.82;1740129;82;21575;-68
2021/04/01 12:27:08;;;;;;;9.03;6.58;;;;;;;21.85;35.29;95623.27;1740138;82;21162;-68
2021/04/01 12:29:48;;;;;;;9.85;6.35;;;;;;;22.27;34.29;95617.03;1740342;82;21299;-68
2021/04/01 12:32:34;;;;;;;17.27;12.00;;;;;;;21.97;34.46;95616.67;1740285;82;21715;-68
2021/04/01 12:35:16;;;;;;;13.58;9.48;;;;;;;21.91;34.72;95613.02;1740178;82;21273;-68
2021/04/01 12:38:02;;;;;;;10.05;7.50;;;;;;;22.42;33.57;95599.91;1740498;82;21133;-68
2021/04/01 12:40:38;;;;;;;9.38;7.22;;;;;;;22.42;33.57;95599.91;1740010;82;21115;-68
2021/04/01 12:43:10;;;;;;;7.53;6.42;;;;;;;22.49;32.67;95592.80;1740189;82;21723;-68
2021/04/01 12:45:37;;;;;;;9.63;6.60;;;;;;;22.83;33.33;95599.02;1740183;82;21718;-68
2021/04/01 12:48:13;;;;;;;7.30;6.15;;;;;;;22.81;33.73;95592.87;1740214;82;21288;-68
2021/04/01 12:50:46;;;;;;;8.18;5.97;;;;;;;23.04;32.29;95591.83;1740093;82;21272;-69
2021/04/01 12:53:21;;;;;;;7.97;6.03;;;;;;;23.42;30.45;95593.23;1740355;81;21276;-68
2021/04/01 12:55:56;;;;;;;9.93;7.30;;;;;;;23.72;29.95;95582.63;1739942;82;21138;-69
2021/04/01 12:58:34;;;;;;;8.43;6.53;;;;;;;23.93;29.51;95573.52;1739253;82;21280;-68
2021/04/01 13:01:20;;;;;;;12.80;7.92;;;;;;;23.26;31.46;95581.32;1739416;82;21276;-68
2021/04/01 13:03:45;;;;;;;9.80;7.03;;;;;;;23.36;31.50;95572.13;1740147;82;21292;-68
2021/04/01 13:06:21;;;;;;;12.73;7.55;;;;;;;22.98;31.64;95570.70;1740011;82;21161;-68
2021/04/01 13:11:16;;;;;;;7.78;6.97;;;;;;;22.16;33.03;95558.58;1754084;81;21158;-68
2021/04/01 13:13:44;;;;;;;8.73;6.87;;;;;;;21.88;33.66;95559.98;1754385;81;21133;-68
2021/04/01 13:16:12;;;;;;;8.35;6.62;;;;;;;22.21;33.38;95539.02;1753926;81;21153;-69
2021/04/01 13:18:40;;;;;;;8.63;6.55;;;;;;;22.88;32.11;95552.94;1754058;81;21133;-69
2021/04/01 13:21:18;;;;;;;8.35;7.05;;;;;;;22.64;31.71;95549.61;1753963;82;21137;-69